Time;durP1;ratioP1;P1;durP2;ratioP2;P2;SDS_P1;SDS_P2;PMS_P1;PMS_P2;Temp;Humidity;BMP_temperature;BMP_pressure;BME280_temperature;BME280_humidity;BME280_pressure;Samples;Min_cycle;Max_cycle;Signal;HPM_P1;HPM_P2
2022/10/02 00:01:51;;;;;;;3.17;2.13;;;;;;;15.98;100.00;94219.88;5073403;28;20178;-64
2022/10/02 00:04:52;;;;;;;4.45;1.90;;;;;;;15.95;100.00;94209.97;5090321;28;20273;-62
2022/10/02 00:07:20;;;;;;;4.85;1.90;;;;;;;15.97;100.00;94212.34;5064664;28;20242;-61
2022/10/02 00:09:51;;;;;;;3.25;2.20;;;;;;;16.04;100.00;94212.47;5091433;28;20208;-60
2022/10/02 00:12:20;;;;;;;3.60;2.50;;;;;;;16.01;100.00;94215.38;5091034;28;20199;-61
2022/10/02 00:14:50;;;;;;;4.68;2.22;;;;;;;15.98;100.00;94214.75;5070471;28;20219;-60
2022/10/02 00:17:25;;;;;;;4.57;2.05;;;;;;;15.98;100.00;94206.25;5089046;28;20207;-62
2022/10/02 00:19:54;;;;;;;5.78;2.33;;;;;;;15.94;100.00;94205.00;5089143;28;20223;-60
2022/10/02 00:22:36;;;;;;;5.30;2.38;;;;;;;15.99;100.00;94210.41;5056313;28;20188;-61
2022/10/02 00:25:11;;;;;;;7.15;2.35;;;;;;;16.02;100.00;94217.75;5090947;28;20235;-61
2022/10/02 00:27:43;;;;;;;3.75;2.20;;;;;;;16.01;100.00;94218.72;5091796;28;20657;-62
2022/10/02 00:30:15;;;;;;;4.05;2.38;;;;;;;16.07;100.00;94222.38;5091352;28;20693;-61
2022/10/02 00:33:06;;;;;;;6.85;2.50;;;;;;;16.09;100.00;94221.22;5072831;28;20183;-60
2022/10/02 00:35:48;;;;;;;5.80;3.00;;;;;;;16.07;100.00;94224.94;5051785;28;20228;-61
2022/10/02 00:38:45;;;;;;;4.80;2.67;;;;;;;16.05;100.00;94221.75;5090099;28;20184;-60
2022/10/02 00:41:35;;;;;;;5.70;2.72;;;;;;;16.06;100.00;94231.81;5071426;28;20214;-60
2022/10/02 00:44:09;;;;;;;4.78;3.00;;;;;;;16.02;100.00;94235.69;5091005;28;20681;-61
2022/10/02 00:46:56;;;;;;;4.40;3.25;;;;;;;15.98;100.00;94249.06;5090880;28;20211;-61
2022/10/02 00:49:37;;;;;;;3.58;2.60;;;;;;;15.97;100.00;94255.94;5072504;28;20671;-62
2022/10/02 00:52:08;;;;;;;9.73;3.40;;;;;;;16.00;100.00;94265.84;5090830;28;20626;-62
2022/10/02 00:55:15;;;;;;;3.63;3.28;;;;;;;15.94;100.00;94262.22;5091038;28;20298;-60
2022/10/02 00:58:27;;;;;;;7.68;3.90;;;;;;;15.96;100.00;94265.41;4989355;28;20203;-61
2022/10/02 01:01:02;;;;;;;6.03;3.85;;;;;;;15.89;100.00;94263.69;4989332;28;20206;-62
2022/10/02 01:03:35;;;;;;;5.78;4.10;;;;;;;15.91;100.00;94265.13;5076967;28;20200;-63
2022/10/02 01:06:00;;;;;;;5.70;3.80;;;;;;;15.92;100.00;94269.28;5090136;28;20260;-62
2022/10/02 01:08:26;;;;;;;4.10;3.70;;;;;;;15.89;100.00;94269.63;5088812;28;20188;-61
2022/10/02 01:10:52;;;;;;;6.07;4.03;;;;;;;15.86;100.00;94269.97;5089712;28;20266;-64
2022/10/02 01:13:19;;;;;;;3.97;3.47;;;;;;;15.85;100.00;94276.06;5090464;28;20184;-64
2022/10/02 01:15:51;;;;;;;3.95;3.10;;;;;;;15.86;100.00;94274.28;5072332;28;20207;-65
2022/10/02 01:18:17;;;;;;;3.30;3.00;;;;;;;15.82;100.00;94275.59;5072530;28;20199;-62
2022/10/02 01:20:47;;;;;;;5.55;2.95;;;;;;;15.80;100.00;94277.53;5072424;28;20205;-60
2022/10/02 01:23:34;;;;;;;2.80;2.38;;;;;;;15.74;100.00;94278.19;5090425;28;20621;-61
2022/10/02 01:25:59;;;;;;;3.47;2.25;;;;;;;15.67;100.00;94272.97;5091904;28;20208;-59
2022/10/02 01:28:26;;;;;;;4.57;2.33;;;;;;;15.67;100.00;94272.19;5091790;28;20191;-61
2022/10/02 01:30:56;;;;;;;2.33;1.85;;;;;;;15.66;100.00;94286.75;5073864;28;20600;-62
2022/10/02 01:33:22;;;;;;;2.33;1.88;;;;;;;15.56;100.00;94283.59;5093571;28;20240;-60
2022/10/02 01:35:48;;;;;;;2.08;1.90;;;;;;;15.54;100.00;94289.84;5075443;28;20607;-62
2022/10/02 01:38:17;;;;;;;3.55;1.80;;;;;;;15.56;100.00;94287.94;5093659;28;20226;-61
2022/10/02 01:40:43;;;;;;;3.30;2.08;;;;;;;15.51;100.00;94288.44;5074189;22;20221;-67
2022/10/02 01:43:18;;;;;;;1.75;1.63;;;;;;;15.46;100.00;94300.94;5073273;28;20181;-60
2022/10/02 01:45:53;;;;;;;3.45;1.67;;;;;;;15.47;100.00;94302.56;5055101;28;20220;-61
2022/10/02 01:48:25;;;;;;;4.88;1.67;;;;;;;15.39;100.00;94297.41;5073506;28;20283;-61
2022/10/02 01:51:09;;;;;;;2.95;1.40;;;;;;;15.45;100.00;94330.13;5072239;28;20569;-63
2022/10/02 01:53:46;;;;;;;2.58;1.55;;;;;;;15.43;100.00;94305.63;5073278;28;20246;-61
2022/10/02 01:56:25;;;;;;;5.35;1.58;;;;;;;15.38;100.00;94305.28;5073130;28;20630;-63
2022/10/02 01:59:14;;;;;;;1.67;1.58;;;;;;;15.40;100.00;94316.97;5073246;28;20220;-62
2022/10/02 02:02:02;;;;;;;2.45;1.55;;;;;;;15.39;100.00;94302.53;5073354;28;20189;-64
2022/10/02 02:04:59;;;;;;;2.80;1.33;;;;;;;15.30;100.00;94300.19;5072992;28;20236;-64
2022/10/02 02:07:34;;;;;;;1.58;1.40;;;;;;;15.27;100.00;94295.41;5059804;28;20249;-62
2022/10/02 02:10:05;;;;;;;2.00;1.40;;;;;;;15.24;100.00;94311.09;5071908;28;20761;-61
2022/10/02 02:12:41;;;;;;;1.55;1.40;;;;;;;15.26;100.00;94321.97;5072945;28;20327;-63
2022/10/02 02:15:16;;;;;;;1.38;1.23;;;;;;;15.17;100.00;94321.22;5073159;28;20220;-64
2022/10/02 02:18:02;;;;;;;3.08;1.30;;;;;;;15.18;100.00;94324.56;5072922;28;20188;-62
2022/10/02 02:20:35;;;;;;;1.52;1.42;;;;;;;15.05;100.00;94328.44;5072991;28;20269;-62
2022/10/02 02:23:09;;;;;;;2.17;1.10;;;;;;;15.07;100.00;94352.13;5072740;28;20584;-64
2022/10/02 02:25:39;;;;;;;1.17;1.08;;;;;;;15.02;100.00;94341.59;5072620;28;20601;-61
2022/10/02 02:28:11;;;;;;;7.93;1.63;;;;;;;14.98;100.00;94350.56;5054587;28;20207;-62
2022/10/02 02:30:40;;;;;;;3.28;1.42;;;;;;;14.94;100.00;94344.19;5072516;28;20209;-62
2022/10/02 02:33:37;;;;;;;1.67;0.90;;;;;;;14.93;100.00;94350.25;5054766;28;20193;-61
2022/10/02 02:36:12;;;;;;;1.23;0.93;;;;;;;14.89;100.00;94351.53;5072493;28;20184;-64
2022/10/02 02:38:52;;;;;;;1.95;1.30;;;;;;;14.85;100.00;94342.59;5072096;28;20669;-63
2022/10/02 02:41:27;;;;;;;1.08;1.00;;;;;;;14.84;100.00;94361.47;5072620;28;20674;-64
2022/10/02 02:43:59;;;;;;;4.65;0.98;;;;;;;14.89;100.00;94364.34;5072082;28;20295;-60
2022/10/02 02:46:32;;;;;;;1.40;1.02;;;;;;;14.87;100.00;94366.25;5070618;28;20296;-64
2022/10/02 02:49:05;;;;;;;2.63;0.80;;;;;;;14.93;100.00;94365.59;5071691;28;20587;-66
2022/10/02 02:51:40;;;;;;;5.43;1.48;;;;;;;14.90;100.00;94370.25;5072334;28;20185;-63
2022/10/02 02:54:22;;;;;;;1.20;0.93;;;;;;;14.89;100.00;94374.56;5072366;28;20218;-61
2022/10/02 02:56:50;;;;;;;2.20;1.20;;;;;;;14.91;100.00;94388.00;5072440;28;20720;-65
2022/10/02 02:59:19;;;;;;;1.95;1.25;;;;;;;14.94;100.00;94407.38;5072384;28;20216;-61
2022/10/02 03:01:44;;;;;;;3.72;1.17;;;;;;;14.94;100.00;94392.00;5072241;28;20696;-60
2022/10/02 03:04:13;;;;;;;1.30;1.20;;;;;;;14.94;100.00;94405.63;5072309;28;20212;-62
2022/10/02 03:06:42;;;;;;;2.55;1.33;;;;;;;14.98;100.00;94406.09;5071967;28;20204;-60
2022/10/02 03:09:14;;;;;;;1.92;1.02;;;;;;;14.98;100.00;94406.88;5072205;28;20303;-64
2022/10/02 03:12:15;;;;;;;2.28;1.45;;;;;;;14.93;100.00;94401.44;5070899;28;20660;-61
2022/10/02 03:15:02;;;;;;;0.93;0.93;;;;;;;14.92;100.00;94407.53;5052460;28;20215;-62
2022/10/02 03:17:57;;;;;;;2.13;1.70;;;;;;;14.90;100.00;94419.69;5072168;28;20191;-62
2022/10/02 03:20:25;;;;;;;3.95;1.48;;;;;;;14.93;100.00;94421.91;5013395;28;20232;-63
2022/10/02 03:22:50;;;;;;;1.80;1.70;;;;;;;14.90;100.00;94419.69;5071740;28;20702;-61
2022/10/02 03:28:10;;;;;;;2.38;1.80;;;;;;;14.94;100.00;94448.31;5103786;22;20236;-61
2022/10/02 03:30:38;;;;;;;2.75;1.92;;;;;;;15.05;100.00;94471.81;5092014;28;20230;-60
2022/10/02 03:33:05;;;;;;;1.73;1.60;;;;;;;15.04;100.00;94464.31;5091744;28;20188;-62
2022/10/02 03:35:31;;;;;;;4.00;2.40;;;;;;;15.00;100.00;94447.69;5091742;28;20666;-63
2022/10/02 03:38:04;;;;;;;4.82;2.25;;;;;;;15.03;100.00;94437.91;5091936;28;20590;-62
2022/10/02 03:40:30;;;;;;;2.47;2.20;;;;;;;15.04;100.00;94451.50;5091839;28;20215;-62
2022/10/02 03:42:57;;;;;;;3.17;2.85;;;;;;;14.99;100.00;94433.25;5091782;28;20184;-62
2022/10/02 03:45:27;;;;;;;3.28;2.58;;;;;;;14.96;100.00;94443.84;5091497;28;20214;-60
2022/10/02 03:47:52;;;;;;;3.38;2.13;;;;;;;14.91;100.00;94439.19;5091594;28;20268;-60
2022/10/02 03:50:19;;;;;;;2.38;2.17;;;;;;;14.95;100.00;94455.03;5072515;28;20629;-61
2022/10/02 03:52:46;;;;;;;6.97;2.53;;;;;;;14.94;100.00;94448.31;5069152;22;20274;-63
2022/10/02 03:55:17;;;;;;;2.35;2.15;;;;;;;14.93;100.00;94447.50;5069916;28;20231;-61
2022/10/02 03:57:44;;;;;;;2.53;2.30;;;;;;;14.93;100.00;94447.50;5071349;28;20250;-60
2022/10/02 04:00:21;;;;;;;3.30;2.70;;;;;;;14.87;100.00;94453.28;5071130;28;20694;-61
2022/10/02 04:02:59;;;;;;;2.33;2.13;;;;;;;14.84;100.00;94457.91;5071557;28;20196;-63
2022/10/02 04:05:35;;;;;;;2.33;2.22;;;;;;;14.80;100.00;94452.34;5071015;28;20209;-62
2022/10/02 04:08:18;;;;;;;3.03;2.83;;;;;;;14.74;100.00;94440.19;5071046;28;20192;-63
2022/10/02 04:10:53;;;;;;;2.78;2.58;;;;;;;14.72;100.00;94454.09;5071116;28;20209;-61
2022/10/02 04:13:49;;;;;;;2.85;2.50;;;;;;;14.71;100.00;94458.41;5071337;28;20192;-63
2022/10/02 04:16:23;;;;;;;7.82;2.92;;;;;;;14.68;100.00;94463.84;5053177;28;20180;-62
2022/10/02 04:18:57;;;;;;;6.10;2.80;;;;;;;14.63;100.00;94475.50;5052842;28;20216;-62
2022/10/02 04:21:33;;;;;;;3.10;2.83;;;;;;;14.61;100.00;94483.34;5070962;28;20271;-63
2022/10/02 04:24:08;;;;;;;3.00;2.70;;;;;;;14.61;100.00;94503.00;5052348;28;20232;-62
2022/10/02 04:26:38;;;;;;;3.90;3.00;;;;;;;14.67;100.00;94521.09;5068557;28;20219;-63
2022/10/02 04:29:17;;;;;;;4.95;3.13;;;;;;;14.67;100.00;94515.97;5068799;28;20206;-63
2022/10/02 04:31:52;;;;;;;4.05;3.00;;;;;;;14.69;100.00;94523.47;5071070;28;20189;-61
2022/10/02 04:34:18;;;;;;;3.50;3.20;;;;;;;14.67;100.00;94508.28;5052806;28;20208;-59
2022/10/02 04:37:02;;;;;;;4.27;3.17;;;;;;;14.69;100.00;94510.69;5070906;28;20185;-61
2022/10/02 04:39:41;;;;;;;3.88;3.50;;;;;;;14.69;100.00;94524.28;5052808;28;20212;-61
2022/10/02 04:42:33;;;;;;;6.10;3.90;;;;;;;14.74;100.00;94522.06;5070668;28;20290;-63
2022/10/02 04:44:59;;;;;;;6.53;3.20;;;;;;;14.74;100.00;94516.94;5052648;28;20705;-62
2022/10/02 04:48:07;;;;;;;5.03;3.22;;;;;;;14.80;100.00;94533.41;5070962;28;20177;-60
2022/10/02 04:51:15;;;;;;;3.25;3.00;;;;;;;14.74;100.00;94536.63;5015489;28;20224;-59
2022/10/02 04:54:17;;;;;;;9.02;4.18;;;;;;;14.73;100.00;94552.91;5070492;28;20216;-61
2022/10/02 04:56:57;;;;;;;2.50;2.33;;;;;;;14.74;100.00;94562.19;5052356;28;20192;-61
2022/10/02 04:59:28;;;;;;;4.30;3.53;;;;;;;14.69;100.00;94556.75;5070368;28;20201;-61
2022/10/02 05:02:19;;;;;;;4.32;3.22;;;;;;;14.73;100.00;94556.28;5073370;28;20270;-61
2022/10/02 05:05:12;;;;;;;3.45;2.70;;;;;;;14.71;100.00;94571.00;5074021;28;20197;-63
2022/10/02 05:07:56;;;;;;;6.93;2.45;;;;;;;14.62;100.00;94578.81;5074509;28;20200;-63
2022/10/02 05:10:27;;;;;;;3.07;2.87;;;;;;;14.62;100.00;94576.25;5055787;28;20200;-62
2022/10/02 05:13:14;;;;;;;5.95;2.95;;;;;;;14.60;100.00;94594.31;5074070;28;20524;-64
2022/10/02 05:16:05;;;;;;;6.03;3.00;;;;;;;14.63;100.00;94596.56;5073802;28;20220;-64
2022/10/02 05:19:01;;;;;;;4.18;2.72;;;;;;;14.69;100.00;94610.47;5042839;28;20234;-62
2022/10/02 05:21:29;;;;;;;3.43;2.90;;;;;;;14.69;100.00;94629.19;5055619;28;20657;-64
2022/10/02 05:24:11;;;;;;;3.45;2.38;;;;;;;14.71;100.00;94622.16;5073418;28;20763;-61
2022/10/02 05:26:45;;;;;;;3.60;2.45;;;;;;;14.80;100.00;94631.47;5055344;28;20592;-60
2022/10/02 05:29:41;;;;;;;6.37;2.80;;;;;;;14.79;100.00;94634.19;5055523;28;20617;-63
2022/10/02 05:32:16;;;;;;;2.03;1.92;;;;;;;14.87;100.00;94652.13;5065192;28;20292;-60
2022/10/02 05:34:44;;;;;;;2.28;2.05;;;;;;;14.92;100.00;94684.00;5073216;28;20196;-61
2022/10/02 05:37:23;;;;;;;2.40;2.10;;;;;;;14.95;100.00;94657.25;5073628;28;20193;-61
2022/10/02 05:40:16;;;;;;;3.50;2.58;;;;;;;14.94;100.00;94668.47;5055386;28;20270;-62
2022/10/02 05:42:48;;;;;;;3.13;2.67;;;;;;;15.05;100.00;94671.53;5073559;28;20196;-62
2022/10/02 05:45:21;;;;;;;2.00;1.80;;;;;;;15.18;100.00;94711.25;5055075;28;20214;-61
2022/10/02 05:47:49;;;;;;;2.70;2.50;;;;;;;15.18;100.00;94713.81;5055256;28;20200;-63
2022/10/02 05:50:23;;;;;;;2.65;2.45;;;;;;;15.24;100.00;94726.81;5055211;28;20236;-61
2022/10/02 05:53:07;;;;;;;2.22;2.03;;;;;;;15.22;100.00;94753.53;5073546;28;20270;-60
2022/10/02 05:55:39;;;;;;;3.57;2.20;;;;;;;15.19;100.00;94775.13;5097849;22;20216;-61
2022/10/02 05:58:12;;;;;;;3.88;2.50;;;;;;;15.21;100.00;94729.66;5093090;28;20329;-63
2022/10/02 06:00:45;;;;;;;3.58;3.28;;;;;;;15.11;100.00;94734.91;5093085;28;20219;-60
2022/10/02 06:03:21;;;;;;;3.28;2.35;;;;;;;15.14;100.00;94724.38;5093192;28;20219;-61
2022/10/02 06:06:08;;;;;;;2.63;2.35;;;;;;;15.17;100.00;94704.53;5092969;28;20207;-62
2022/10/02 06:08:42;;;;;;;3.30;3.00;;;;;;;15.28;100.00;94711.91;5093324;28;20268;-62
2022/10/02 06:11:14;;;;;;;3.83;2.20;;;;;;;15.26;100.00;94757.38;5093067;28;20257;-62
2022/10/02 06:13:48;;;;;;;4.77;2.70;;;;;;;15.30;100.00;94705.69;5073845;28;20216;-61
2022/10/02 06:16:23;;;;;;;2.50;2.30;;;;;;;15.28;100.00;94783.63;5092984;28;20196;-61
2022/10/02 06:18:56;;;;;;;3.67;2.40;;;;;;;15.22;100.00;94746.66;5092921;28;20301;-60
2022/10/02 06:21:35;;;;;;;2.30;2.17;;;;;;;15.29;100.00;94749.41;5073651;28;20196;-62
2022/10/02 06:24:09;;;;;;;2.92;1.95;;;;;;;15.33;100.00;94778.88;5091892;28;20208;-64
2022/10/02 06:27:06;;;;;;;2.35;2.05;;;;;;;15.36;100.00;94783.66;5073551;28;20773;-62
2022/10/02 06:29:41;;;;;;;2.30;2.10;;;;;;;15.45;100.00;94775.91;5076683;28;20224;-63
2022/10/02 06:32:25;;;;;;;4.80;2.78;;;;;;;15.48;100.00;94782.44;5090319;28;20262;-63
2022/10/02 06:34:50;;;;;;;4.68;2.60;;;;;;;15.40;100.00;94782.41;5090352;28;20287;-63
2022/10/02 06:37:37;;;;;;;2.88;2.33;;;;;;;15.39;100.00;94776.47;5074425;28;20283;-64
2022/10/02 06:40:17;;;;;;;5.07;3.00;;;;;;;15.40;100.00;94797.75;5092554;28;20216;-63
2022/10/02 06:43:00;;;;;;;6.40;3.20;;;;;;;15.42;100.00;94783.03;5092765;28;20191;-62
2022/10/02 06:45:25;;;;;;;4.22;3.10;;;;;;;15.44;100.00;94799.09;5092477;28;20218;-61
2022/10/02 06:48:06;;;;;;;2.67;2.47;;;;;;;15.48;100.00;94801.19;5092554;28;20192;-61
2022/10/02 06:50:43;;;;;;;3.38;2.80;;;;;;;15.44;100.00;94805.03;5092475;28;20219;-61
2022/10/02 06:53:22;;;;;;;4.05;3.00;;;;;;;15.50;100.00;94818.97;5074312;28;20312;-61
2022/10/02 06:55:51;;;;;;;3.05;2.85;;;;;;;15.62;100.00;94825.41;5092506;28;20253;-61
2022/10/02 06:58:22;;;;;;;6.03;2.80;;;;;;;15.61;100.00;94857.94;5092448;28;20263;-62
2022/10/02 07:00:54;;;;;;;3.88;3.00;;;;;;;15.66;100.00;94865.97;5092099;28;20192;-61
2022/10/02 07:03:38;;;;;;;4.25;2.80;;;;;;;15.80;100.00;94860.22;5091653;28;20643;-61
2022/10/02 07:06:20;;;;;;;2.85;2.65;;;;;;;15.68;100.00;94876.03;5090500;28;20269;-61
2022/10/02 07:09:10;;;;;;;3.03;2.83;;;;;;;15.69;100.00;94854.59;5089841;28;20609;-61
2022/10/02 07:12:05;;;;;;;3.35;3.10;;;;;;;15.84;100.00;94853.03;5090071;28;20187;-62
2022/10/02 07:15:08;;;;;;;2.85;2.65;;;;;;;15.90;100.00;94876.28;5081394;28;20238;-61
2022/10/02 07:18:09;;;;;;;3.20;2.60;;;;;;;15.97;100.00;94868.78;5073829;28;20192;-62
2022/10/02 07:20:52;;;;;;;2.47;2.28;;;;;;;16.00;100.00;94904.34;5046978;28;20319;-62
2022/10/02 07:23:35;;;;;;;3.63;2.75;;;;;;;16.05;100.00;94886.75;5091944;28;20604;-60
2022/10/02 07:26:01;;;;;;;3.42;2.60;;;;;;;15.96;100.00;94913.31;5091882;28;20689;-62
2022/10/02 07:28:51;;;;;;;4.15;2.95;;;;;;;15.90;100.00;94870.34;5073512;28;20241;-62
2022/10/02 07:31:19;;;;;;;4.15;3.20;;;;;;;15.98;100.00;94866.03;5091845;28;20610;-61
2022/10/02 07:34:20;;;;;;;5.05;2.75;;;;;;;16.04;100.00;94895.38;5072209;28;20290;-63
2022/10/02 07:37:21;;;;;;;4.75;1.75;;;;;;;16.00;100.00;94967.69;5071945;28;20184;-63
2022/10/02 07:40:20;;;;;;;3.33;1.90;;;;;;;16.04;100.00;94933.84;5091439;28;20206;-62
2022/10/02 07:42:45;;;;;;;2.50;2.28;;;;;;;16.07;100.00;94961.75;5072806;28;20203;-61
2022/10/02 07:45:26;;;;;;;2.00;1.77;;;;;;;16.09;100.00;94972.66;5089277;28;20208;-60
2022/10/02 07:47:51;;;;;;;1.90;1.75;;;;;;;16.16;100.00;94960.03;5089348;28;20309;-62
2022/10/02 07:50:20;;;;;;;2.08;1.98;;;;;;;16.27;100.00;94931.50;5073469;28;20231;-64
2022/10/02 07:52:52;;;;;;;3.70;2.00;;;;;;;16.36;100.00;94940.84;5091445;28;20184;-60
2022/10/02 07:55:20;;;;;;;3.42;1.67;;;;;;;16.43;100.00;94993.94;5091427;28;20208;-60
2022/10/02 07:57:48;;;;;;;3.45;1.45;;;;;;;16.34;100.00;95056.44;5091505;28;20662;-61
2022/10/02 08:00:17;;;;;;;1.80;1.70;;;;;;;16.26;100.00;95032.53;5091593;28;20563;-65
2022/10/02 08:02:56;;;;;;;2.25;1.40;;;;;;;16.28;100.00;95018.56;5091235;28;20180;-60
2022/10/02 08:05:32;;;;;;;3.17;1.50;;;;;;;16.34;100.00;95043.63;5091510;28;20231;-63
2022/10/02 08:08:13;;;;;;;1.88;1.58;;;;;;;16.47;100.00;95044.00;5071401;28;20188;-62
2022/10/02 08:10:44;;;;;;;1.50;1.40;;;;;;;16.52;99.68;95079.50;5089857;28;20211;-64
2022/10/02 08:13:20;;;;;;;1.27;1.10;;;;;;;16.47;98.85;95071.41;5091194;28;20237;-62
2022/10/02 08:15:49;;;;;;;2.92;1.60;;;;;;;16.59;99.72;95058.19;5073164;28;20207;-61
2022/10/02 08:18:47;;;;;;;1.52;1.40;;;;;;;16.65;99.82;95031.88;5091150;28;20191;-64
2022/10/02 08:21:20;;;;;;;2.22;1.50;;;;;;;16.75;100.00;95036.88;5090911;28;20192;-60
2022/10/02 08:23:53;;;;;;;2.85;1.50;;;;;;;16.96;100.00;95044.94;5091109;28;20200;-63
2022/10/02 08:26:33;;;;;;;2.33;1.95;;;;;;;16.94;99.36;95059.69;5090856;28;20235;-61
2022/10/02 08:29:39;;;;;;;3.25;1.52;;;;;;;16.81;99.77;95056.78;5072646;28;20230;-61
2022/10/02 08:32:10;;;;;;;1.58;1.45;;;;;;;16.84;99.90;95042.81;5053197;28;20210;-61
2022/10/02 08:34:37;;;;;;;1.67;1.45;;;;;;;17.18;99.94;95041.75;5090833;28;20261;-60
2022/10/02 08:37:13;;;;;;;2.85;1.50;;;;;;;17.32;97.72;95094.25;5093498;28;20207;-61
2022/10/02 08:40:10;;;;;;;1.30;1.20;;;;;;;17.23;98.59;95088.31;5092128;28;20205;-60
2022/10/02 08:42:57;;;;;;;3.13;1.80;;;;;;;17.13;98.27;95081.72;5091954;28;20184;-60
2022/10/02 08:45:52;;;;;;;2.55;1.33;;;;;;;17.00;97.13;95091.66;5093507;28;20220;-62
2022/10/02 08:48:21;;;;;;;2.83;1.20;;;;;;;17.21;95.49;95122.84;5094193;28;20257;-60
2022/10/02 08:51:19;;;;;;;2.75;1.42;;;;;;;17.40;95.16;95115.63;5075943;28;20591;-60
2022/10/02 08:54:23;;;;;;;1.27;1.17;;;;;;;17.39;82.01;95106.31;5093985;28;20208;-63
2022/10/02 08:57:07;;;;;;;1.67;1.58;;;;;;;17.60;81.01;95108.44;5093993;28;20680;-63
2022/10/02 08:59:49;;;;;;;1.20;1.10;;;;;;;17.57;80.19;95101.06;5094197;28;20256;-63
2022/10/02 09:02:52;;;;;;;2.40;1.23;;;;;;;17.70;79.07;95131.41;5075978;28;20196;-61
2022/10/02 09:05:54;;;;;;;1.52;1.17;;;;;;;17.58;78.70;95136.06;5094110;28;20261;-59
2022/10/02 09:09:11;;;;;;;1.45;1.35;;;;;;;17.53;75.88;95099.78;5093906;28;20199;-61
2022/10/02 09:11:45;;;;;;;2.13;1.42;;;;;;;17.48;74.18;95099.41;5067578;28;20208;-63
2022/10/02 09:14:23;;;;;;;1.10;1.00;;;;;;;17.59;72.54;95135.13;5093900;28;20217;-63
2022/10/02 09:16:57;;;;;;;1.73;1.20;;;;;;;17.68;73.23;95118.72;5093583;28;20670;-62
2022/10/02 09:20:01;;;;;;;1.20;1.10;;;;;;;17.94;72.35;95124.47;5075158;28;20650;-63
2022/10/02 09:22:46;;;;;;;1.13;1.00;;;;;;;18.13;71.42;95156.78;5053111;28;20204;-64
2022/10/02 09:25:36;;;;;;;2.88;1.30;;;;;;;18.60;70.77;95154.28;5091300;28;20401;-62
2022/10/02 09:28:40;;;;;;;1.50;1.40;;;;;;;18.93;69.17;95181.53;5091528;28;20271;-64
2022/10/02 09:31:24;;;;;;;3.25;1.38;;;;;;;18.49;69.50;95162.34;5075683;28;20194;-61
2022/10/02 09:34:17;;;;;;;7.25;1.33;;;;;;;18.42;68.06;95195.69;5093872;28;20253;-65
2022/10/02 09:37:05;;;;;;;3.17;1.42;;;;;;;18.27;68.86;95159.50;5093541;28;20235;-62
2022/10/02 09:39:58;;;;;;;4.07;1.25;;;;;;;18.22;69.23;95135.22;5093656;28;20244;-63
2022/10/02 09:42:23;;;;;;;3.13;1.50;;;;;;;18.40;67.50;95177.03;5093514;28;20212;-61
2022/10/02 09:45:22;;;;;;;2.60;1.27;;;;;;;18.45;66.96;95182.50;5092730;28;20236;-61
2022/10/02 09:48:09;;;;;;;1.65;1.55;;;;;;;18.60;66.68;95177.47;5089937;28;20191;-60
2022/10/02 09:50:38;;;;;;;3.28;1.73;;;;;;;18.86;67.00;95165.94;5091173;28;20207;-62
2022/10/02 09:53:16;;;;;;;1.75;1.63;;;;;;;19.16;64.86;95228.78;5091638;28;20234;-63
2022/10/02 09:56:23;;;;;;;2.10;1.63;;;;;;;19.17;65.02;95220.06;5075005;28;20712;-61
2022/10/02 09:59:07;;;;;;;2.10;1.40;;;;;;;19.11;64.76;95211.25;5041572;28;20276;-60
2022/10/02 10:01:46;;;;;;;1.33;1.23;;;;;;;19.04;64.51;95207.75;5093293;28;20624;-63
2022/10/02 10:04:19;;;;;;;1.52;1.42;;;;;;;18.91;65.57;95186.03;5093149;28;20212;-63
2022/10/02 10:07:00;;;;;;;1.88;1.73;;;;;;;19.16;64.80;95218.47;5074870;28;20215;-62
2022/10/02 10:09:49;;;;;;;1.48;1.38;;;;;;;19.08;64.95;95205.63;5093080;28;20247;-65
2022/10/02 10:12:27;;;;;;;3.28;1.67;;;;;;;19.26;63.70;95226.81;5093026;28;20184;-61
2022/10/02 10:15:18;;;;;;;3.33;1.40;;;;;;;19.56;64.18;95204.59;5092913;28;20599;-62
2022/10/02 10:18:02;;;;;;;2.38;1.67;;;;;;;19.74;62.50;95249.78;5059283;28;20196;-60
2022/10/02 10:20:44;;;;;;;1.60;1.50;;;;;;;19.45;63.13;95215.31;5091515;28;20223;-61
2022/10/02 10:23:50;;;;;;;1.42;1.33;;;;;;;19.32;62.17;95218.41;5092764;28;20182;-62
2022/10/02 10:26:26;;;;;;;2.42;1.27;;;;;;;19.35;63.91;95181.19;5074406;28;20216;-63
2022/10/02 10:29:14;;;;;;;2.25;1.38;;;;;;;19.26;63.55;95188.94;5074387;28;20219;-62
2022/10/02 10:31:56;;;;;;;1.08;1.08;;;;;;;19.13;63.42;95188.69;5076871;28;20203;-62
2022/10/02 10:35:02;;;;;;;1.60;1.20;;;;;;;19.55;63.06;95192.69;5092916;28;20208;-62
2022/10/02 10:40:37;;;;;;;1.30;1.20;;;;;;;19.82;62.20;95208.44;5100135;22;20235;-63
2022/10/02 10:43:27;;;;;;;1.08;1.00;;;;;;;20.05;60.06;95265.22;5092307;28;20192;-62
2022/10/02 10:46:11;;;;;;;2.60;1.42;;;;;;;19.97;60.62;95236.91;5071334;28;20216;-64
2022/10/02 10:48:45;;;;;;;0.95;0.95;;;;;;;20.33;60.36;95242.28;5070795;28;20196;-64
2022/10/02 10:51:16;;;;;;;1.05;0.95;;;;;;;20.45;59.69;95238.28;5072284;28;20184;-60
2022/10/02 10:54:21;;;;;;;0.93;0.93;;;;;;;20.31;57.91;95273.44;5072617;28;20204;-60
2022/10/02 10:57:03;;;;;;;2.13;1.33;;;;;;;20.59;58.47;95277.09;5072182;28;20193;-59
2022/10/02 10:59:47;;;;;;;3.03;1.30;;;;;;;19.86;58.60;95243.25;5054392;28;20694;-63
2022/10/02 11:02:47;;;;;;;1.52;0.90;;;;;;;19.16;60.47;95169.50;5072396;28;20195;-63
2022/10/02 11:05:19;;;;;;;1.17;0.80;;;;;;;19.22;59.35;95207.50;5072164;28;20266;-63
2022/10/02 11:07:44;;;;;;;1.23;0.70;;;;;;;19.28;58.62;95219.72;5071921;28;20176;-63
2022/10/02 11:10:36;;;;;;;1.15;1.15;;;;;;;19.23;59.17;95201.34;5071861;28;20762;-61
2022/10/02 11:13:24;;;;;;;1.80;1.02;;;;;;;18.84;59.94;95172.22;5053695;28;20199;-64
2022/10/02 11:16:08;;;;;;;1.45;0.75;;;;;;;18.82;60.50;95154.38;5071655;28;20181;-66
2022/10/02 11:18:55;;;;;;;1.30;1.20;;;;;;;19.27;60.78;95151.88;5070510;28;20489;-66
2022/10/02 11:21:38;;;;;;;1.10;1.10;;;;;;;19.51;60.98;95152.72;5071781;28;20658;-64
2022/10/02 11:24:21;;;;;;;2.97;1.25;;;;;;;19.81;58.76;95217.19;5071879;28;20227;-63
2022/10/02 11:26:59;;;;;;;1.13;1.02;;;;;;;19.93;58.27;95212.41;5053640;28;20213;-61
2022/10/02 11:29:53;;;;;;;1.02;0.93;;;;;;;19.81;58.89;95188.78;5053448;28;20216;-61
2022/10/02 11:32:57;;;;;;;1.75;1.10;;;;;;;20.14;58.91;95180.78;5070965;28;20193;-64
2022/10/02 11:35:55;;;;;;;2.42;1.30;;;;;;;20.21;57.15;95228.19;5053332;28;20255;-63
2022/10/02 11:38:39;;;;;;;1.33;1.00;;;;;;;20.20;56.98;95248.03;5071325;28;20193;-62
2022/10/02 11:41:25;;;;;;;1.23;1.13;;;;;;;20.14;57.17;95229.84;5071377;28;20205;-63
2022/10/02 11:44:09;;;;;;;0.90;0.85;;;;;;;20.29;56.56;95247.00;5071309;28;20212;-61
2022/10/02 11:46:47;;;;;;;0.95;0.95;;;;;;;20.24;56.02;95244.13;5071106;28;20274;-61
2022/10/02 11:49:36;;;;;;;3.13;1.20;;;;;;;20.24;56.73;95228.63;5071138;28;20311;-61
2022/10/02 11:52:27;;;;;;;1.58;1.10;;;;;;;20.40;56.20;95240.63;5070413;28;20221;-60
2022/10/02 11:55:07;;;;;;;5.30;1.42;;;;;;;20.40;55.50;95287.91;5071042;28;20221;-60
2022/10/02 11:57:53;;;;;;;3.88;1.15;;;;;;;19.88;57.56;95194.84;5071138;28;20181;-63
2022/10/02 12:00:22;;;;;;;1.55;1.17;;;;;;;19.70;57.98;95196.09;5053042;28;20212;-62
2022/10/02 12:02:51;;;;;;;1.30;1.02;;;;;;;19.63;56.95;95201.19;5071095;28;20193;-60
2022/10/02 12:05:54;;;;;;;2.65;0.82;;;;;;;19.72;57.62;95194.16;5070720;28;20217;-62
2022/10/02 12:08:29;;;;;;;0.95;0.90;;;;;;;19.99;57.38;95191.06;5070944;28;20191;-64
2022/10/02 12:11:14;;;;;;;1.02;1.00;;;;;;;20.27;57.21;95191.31;5069948;28;20189;-63
2022/10/02 12:14:01;;;;;;;2.20;1.35;;;;;;;20.10;56.44;95214.69;5055096;28;20311;-61
2022/10/02 12:16:42;;;;;;;6.65;1.30;;;;;;;19.98;57.26;95195.41;5070713;28;20176;-61
2022/10/02 12:29:13;;;;;;;1.38;1.00;;;;;;;20.36;56.63;95198.03;5040134;28;20244;-62
2022/10/02 12:31:55;;;;;;;1.40;1.30;;;;;;;20.34;56.58;95200.00;5070553;28;20173;-60
2022/10/02 12:34:38;;;;;;;3.90;1.15;;;;;;;20.19;57.22;95176.72;5052460;28;20216;-64
2022/10/02 12:37:18;;;;;;;1.67;0.73;;;;;;;20.22;56.97;95193.66;5070639;28;20192;-60
2022/10/02 12:40:04;;;;;;;2.90;1.00;;;;;;;20.02;56.46;95201.03;5070537;28;20300;-61
2022/10/02 12:43:03;;;;;;;1.17;1.08;;;;;;;20.07;56.14;95203.91;5070411;28;20200;-61